createdAt,value
2018-04-19T00:00:24.374Z,4.80
2018-04-19T00:02:51.145Z,5.87
2018-04-19T00:05:17.342Z,5.60
2018-04-19T00:07:44.477Z,5.15
2018-04-19T00:10:11.015Z,5.65
2018-04-19T00:12:38.011Z,5.15
2018-04-19T00:15:04.783Z,6.03
2018-04-19T00:17:31.997Z,6.00
2018-04-19T00:19:58.199Z,5.95
2018-04-19T00:22:24.445Z,5.28
2018-04-19T00:24:50.657Z,5.50
2018-04-19T00:27:17.419Z,5.53
2018-04-19T00:29:44.256Z,5.47
2018-04-19T00:32:11.024Z,4.95
2018-04-19T00:34:37.768Z,4.30
2018-04-19T00:37:04.888Z,5.50
2018-04-19T00:39:39.516Z,4.90
2018-04-19T00:42:06.293Z,6.10
2018-04-19T00:44:33.226Z,4.80
2018-04-19T00:47:00.175Z,5.15
2018-04-19T00:49:27.165Z,5.32
2018-04-19T00:51:54.056Z,6.32
2018-04-19T00:54:20.262Z,5.80
2018-04-19T00:56:46.465Z,6.05
2018-04-19T00:59:14.143Z,5.80
2018-04-19T01:01:41.961Z,5.22
2018-04-19T01:04:08.167Z,5.55
2018-04-19T01:06:34.790Z,5.82
2018-04-19T01:09:01.999Z,5.72
2018-04-19T01:11:28.740Z,5.45
2018-04-19T01:13:55.752Z,6.68
2018-04-19T01:16:23.287Z,6.37
2018-04-19T01:18:50.030Z,5.70
2018-04-19T01:21:16.273Z,6.70
2018-04-19T01:23:43.576Z,7.47
2018-04-19T01:26:09.842Z,7.10
2018-04-19T01:28:36.344Z,7.05
2018-04-19T01:31:03.885Z,6.57
2018-04-19T01:33:30.211Z,7.60
2018-04-19T01:36:10.053Z,7.18
2018-04-19T01:38:36.842Z,6.78
2018-04-19T01:41:03.588Z,7.12
2018-04-19T01:43:31.301Z,8.05
2018-04-19T01:45:58.042Z,6.72
2018-04-19T01:48:24.793Z,6.80
2018-04-19T01:50:51.628Z,8.32
2018-04-19T01:53:17.813Z,7.22
2018-04-19T01:55:45.322Z,6.60
2018-04-19T01:58:12.322Z,6.80
2018-04-19T02:00:39.848Z,6.78
2018-04-19T02:03:06.642Z,6.97
2018-04-19T02:05:33.431Z,6.65
2018-04-19T02:08:00.202Z,6.82
2018-04-19T02:10:27.149Z,7.47
2018-04-19T02:12:54.119Z,6.70
2018-04-19T02:15:20.307Z,6.30
2018-04-19T02:17:47.068Z,6.45
2018-04-19T02:20:15.252Z,6.55
2018-04-19T02:22:41.681Z,7.20
2018-04-19T02:25:09.296Z,6.57
2018-04-19T02:27:36.087Z,6.70
2018-04-19T02:30:03.128Z,6.18
2018-04-19T02:32:30.171Z,6.50
2018-04-19T02:34:57.664Z,5.95
2018-04-19T02:37:24.690Z,6.25
2018-04-19T02:39:52.351Z,6.75
2018-04-19T02:42:18.572Z,7.05
2018-04-19T02:44:45.308Z,6.05
2018-04-19T02:47:11.740Z,6.20
2018-04-19T02:49:38.618Z,8.68
2018-04-19T02:52:04.847Z,8.00
2018-04-19T02:54:31.810Z,7.35
2018-04-19T02:56:58.324Z,6.40
2018-04-19T02:59:25.596Z,7.00
2018-04-19T03:01:52.429Z,7.25
2018-04-19T03:04:19.196Z,7.45
2018-04-19T03:06:45.989Z,9.95
2018-04-19T03:09:12.202Z,8.05
2018-04-19T03:11:38.416Z,7.20
2018-04-19T03:14:05.386Z,7.20
2018-04-19T03:16:31.614Z,6.47
2018-04-19T03:18:58.160Z,7.10
2018-04-19T03:21:25.767Z,7.50
2018-04-19T03:23:51.942Z,7.18
2018-04-19T03:26:18.848Z,6.57
2018-04-19T03:28:45.761Z,6.20
2018-04-19T03:31:11.977Z,7.22
2018-04-19T03:33:38.197Z,6.37
2018-04-19T03:36:04.645Z,6.72
2018-04-19T03:38:31.645Z,7.57
2018-04-19T03:40:57.975Z,7.05
2018-04-19T03:43:24.197Z,7.35
2018-04-19T03:45:50.965Z,7.53
2018-04-19T03:48:17.201Z,7.72
2018-04-19T03:50:44.635Z,8.13
2018-04-19T03:53:12.719Z,8.00
2018-04-19T03:55:38.931Z,7.70
2018-04-19T03:58:05.142Z,6.75
2018-04-19T04:00:32.098Z,7.85
2018-04-19T04:02:58.960Z,6.93
2018-04-19T04:05:25.178Z,6.45
2018-04-19T04:07:52.332Z,6.72
2018-04-19T04:10:19.038Z,10.23
2018-04-19T04:12:46.177Z,7.47
2018-04-19T04:15:12.334Z,7.60
2018-04-19T04:17:50.844Z,7.60
2018-04-19T04:20:30.582Z,6.40
2018-04-19T04:25:58.420Z,7.80
2018-04-19T04:28:25.614Z,6.90
2018-04-19T04:30:52.996Z,7.32
2018-04-19T04:33:20.433Z,7.40
2018-04-19T04:35:49.306Z,7.10
2018-04-19T04:38:16.281Z,8.75
2018-04-19T04:40:43.139Z,7.70
2018-04-19T04:43:09.551Z,7.00
2018-04-19T04:45:37.275Z,8.10
2018-04-19T04:48:03.770Z,7.00
2018-04-19T04:50:30.822Z,8.13
2018-04-19T04:52:57.599Z,8.65
2018-04-19T04:55:23.791Z,8.40
2018-04-19T04:57:50.049Z,7.05
2018-04-19T05:00:17.028Z,7.82
2018-04-19T05:02:43.796Z,8.18
2018-04-19T05:05:11.105Z,7.57
2018-04-19T05:07:38.090Z,7.07
2018-04-19T05:10:04.300Z,7.30
2018-04-19T05:12:30.601Z,8.15
2018-04-19T05:14:57.866Z,7.10
2018-04-19T05:17:25.446Z,7.18
2018-04-19T05:19:51.629Z,7.50
2018-04-19T05:22:17.840Z,6.75
2018-04-19T05:24:44.393Z,8.47
2018-04-19T05:27:12.088Z,6.60
2018-04-19T05:29:38.335Z,7.40
2018-04-19T05:32:04.536Z,7.37
2018-04-19T05:34:31.827Z,8.83
2018-04-19T05:36:59.261Z,8.93
2018-04-19T05:39:26.501Z,8.40
2018-04-19T05:41:56.707Z,8.17
2018-04-19T05:44:23.693Z,8.00
2018-04-19T05:46:50.732Z,7.87
2018-04-19T05:49:16.927Z,8.10
2018-04-19T05:51:43.777Z,9.83
2018-04-19T05:54:11.034Z,10.17
2018-04-19T05:56:37.265Z,9.40
2018-04-19T05:59:03.631Z,9.70
2018-04-19T06:01:29.846Z,9.10
2018-04-19T06:03:56.474Z,9.10
2018-04-19T06:06:24.092Z,8.40
2018-04-19T06:08:50.315Z,8.90
2018-04-19T06:11:17.507Z,8.97
2018-04-19T06:13:43.777Z,8.27
2018-04-19T06:16:10.618Z,9.60
2018-04-19T06:18:37.098Z,9.67
2018-04-19T06:21:04.631Z,9.90
2018-04-19T06:23:31.418Z,9.47
2018-04-19T06:25:57.858Z,10.27
2018-04-19T06:28:24.074Z,9.87
2018-04-19T06:30:50.342Z,9.80
2018-04-19T06:33:16.601Z,9.50
2018-04-19T06:35:43.559Z,9.03
2018-04-19T06:38:10.490Z,9.07
2018-04-19T06:40:36.717Z,9.10
2018-04-19T06:43:03.749Z,9.87
2018-04-19T06:45:30.483Z,9.60
2018-04-19T06:47:57.482Z,9.77
2018-04-19T06:50:24.442Z,9.70
2018-04-19T06:52:51.181Z,10.20
2018-04-19T06:55:18.289Z,10.50
2018-04-19T06:57:45.644Z,11.40
2018-04-19T07:00:13.208Z,11.43
2018-04-19T07:02:40.427Z,11.70
2018-04-19T07:05:08.262Z,10.90
2018-04-19T07:07:35.456Z,12.23
2018-04-19T07:10:02.425Z,11.97
2018-04-19T07:12:29.450Z,10.20
2018-04-19T07:14:56.213Z,11.90
2018-04-19T07:17:23.681Z,11.43
2018-04-19T07:19:50.715Z,11.07
2018-04-19T07:22:18.289Z,10.90
2018-04-19T07:24:46.015Z,11.30
2018-04-19T07:27:12.218Z,11.70
2018-04-19T07:29:38.426Z,10.80
2018-04-19T07:32:05.179Z,10.17
2018-04-19T07:34:32.404Z,10.50
2018-04-19T07:36:58.613Z,10.57
2018-04-19T07:39:25.580Z,10.63
2018-04-19T07:41:52.434Z,9.20
2018-04-19T07:44:19.226Z,8.30
2018-04-19T07:46:46.767Z,10.07
2018-04-19T07:49:12.976Z,9.30
2018-04-19T07:51:39.192Z,9.73
2018-04-19T07:54:07.319Z,9.23
2018-04-19T07:56:34.862Z,9.83
2018-04-19T07:59:01.638Z,9.27
2018-04-19T08:01:27.868Z,8.93
2018-04-19T08:03:54.118Z,8.83
2018-04-19T08:06:20.889Z,9.70
2018-04-19T08:08:47.593Z,18.43
2018-04-19T08:11:15.434Z,9.33
2018-04-19T08:13:41.669Z,8.83
2018-04-19T08:16:08.459Z,8.80
2018-04-19T08:18:35.078Z,8.37
2018-04-19T08:21:01.297Z,8.43
2018-04-19T08:23:27.584Z,7.40
2018-04-19T08:25:55.761Z,6.83
2018-04-19T08:28:23.228Z,7.60
2018-04-19T08:30:49.414Z,8.70
2018-04-19T08:33:15.615Z,7.93
2018-04-19T08:35:43.144Z,7.67
2018-04-19T08:38:09.440Z,7.87
2018-04-19T08:40:35.749Z,7.67
2018-04-19T08:43:02.923Z,8.17
2018-04-19T08:45:29.833Z,7.67
2018-04-19T08:47:56.062Z,6.63
2018-04-19T08:50:22.421Z,6.90
2018-04-19T08:52:48.719Z,7.00
2018-04-19T08:55:15.612Z,6.70
2018-04-19T08:57:42.555Z,6.43
2018-04-19T09:00:10.177Z,7.00
2018-04-19T09:02:36.941Z,6.40
2018-04-19T09:05:03.161Z,7.10
2018-04-19T09:07:29.927Z,7.03
2018-04-19T09:09:57.618Z,6.43
2018-04-19T09:12:23.812Z,6.60
2018-04-19T09:14:51.146Z,6.70
2018-04-19T09:17:18.022Z,6.03
2018-04-19T09:19:44.956Z,6.10
2018-04-19T09:22:11.965Z,6.47
2018-04-19T09:24:38.172Z,6.20
2018-04-19T09:27:05.188Z,6.50
2018-04-19T09:29:32.239Z,5.60
2018-04-19T09:31:59.026Z,5.53
2018-04-19T09:34:25.397Z,5.70
2018-04-19T09:36:52.338Z,4.97
2018-04-19T09:39:19.496Z,6.57
2018-04-19T09:41:46.659Z,6.40
2018-04-19T09:44:13.396Z,6.20
2018-04-19T09:46:39.642Z,5.90
2018-04-19T09:49:05.872Z,5.70
2018-04-19T09:51:32.132Z,5.50
2018-04-19T09:53:58.437Z,6.37
2018-04-19T09:56:25.130Z,5.30
2018-04-19T09:59:04.353Z,5.77
2018-04-19T10:01:31.312Z,6.10
2018-04-19T10:03:58.324Z,6.10
2018-04-19T10:06:24.535Z,6.17
2018-04-19T10:08:50.761Z,5.77
2018-04-19T10:11:17.689Z,5.67
2018-04-19T10:13:44.689Z,4.30
2018-04-19T10:16:11.662Z,5.10
2018-04-19T10:18:38.416Z,5.50
2018-04-19T10:21:04.622Z,5.50
2018-04-19T10:23:30.854Z,5.10
2018-04-19T10:25:57.037Z,5.60
2018-04-19T10:28:24.264Z,5.10
2018-04-19T10:30:50.499Z,5.53
2018-04-19T10:33:18.254Z,5.50
2018-04-19T10:35:45.486Z,5.50
2018-04-19T10:38:12.401Z,4.90
2018-04-19T10:40:39.628Z,4.37
2018-04-19T10:43:06.656Z,5.27
2018-04-19T10:45:32.915Z,5.60
2018-04-19T10:47:59.729Z,5.90
2018-04-19T10:50:26.097Z,4.83
2018-04-19T10:52:53.031Z,5.13
2018-04-19T10:55:20.084Z,4.87
2018-04-19T10:57:46.333Z,4.73
2018-04-19T11:00:13.281Z,5.03
2018-04-19T11:02:40.412Z,5.20
2018-04-19T11:05:07.765Z,4.43
2018-04-19T11:07:34.740Z,4.60
2018-04-19T11:10:01.564Z,4.60
2018-04-19T11:12:28.287Z,5.00
2018-04-19T11:14:55.703Z,4.43
2018-04-19T11:17:21.949Z,4.80
2018-04-19T11:19:48.623Z,4.47
2018-04-19T11:22:15.587Z,4.10
2018-04-19T11:24:41.957Z,4.30
2018-04-19T11:27:09.289Z,4.20
2018-04-19T11:29:36.340Z,4.10
2018-04-19T11:32:02.537Z,4.30
2018-04-19T11:34:29.323Z,4.20
2018-04-19T11:36:55.559Z,3.70
2018-04-19T11:39:22.382Z,4.80
2018-04-19T11:41:48.577Z,4.77
2018-04-19T11:44:15.015Z,5.20
2018-04-19T11:46:42.274Z,5.13
2018-04-19T11:49:08.607Z,4.43
2018-04-19T11:51:34.985Z,4.00
2018-04-19T11:54:02.072Z,5.33
2018-04-19T11:56:29.300Z,5.57
2018-04-19T11:58:56.265Z,5.20
2018-04-19T12:01:23.137Z,4.60
2018-04-19T12:03:49.933Z,4.90
2018-04-19T12:06:16.961Z,5.10
2018-04-19T12:08:44.672Z,4.97
2018-04-19T12:11:12.161Z,5.43
2018-04-19T12:13:38.640Z,5.07
2018-04-19T12:16:05.190Z,5.20
2018-04-19T12:18:31.448Z,4.63
2018-04-19T12:20:58.811Z,5.00
2018-04-19T12:23:25.068Z,2.70
2018-04-19T12:26:06.622Z,3.03
2018-04-19T12:28:33.391Z,3.27
2018-04-19T12:31:00.416Z,2.83
2018-04-19T12:33:27.608Z,2.80
2018-04-19T12:35:55.196Z,2.40
2018-04-19T12:38:21.741Z,3.57
2018-04-19T12:40:48.238Z,2.63
2018-04-19T12:43:15.513Z,2.60
2018-04-19T12:45:42.993Z,2.40
2018-04-19T12:48:10.577Z,2.90
2018-04-19T12:50:37.205Z,3.50
2018-04-19T12:53:04.366Z,3.40
2018-04-19T12:55:31.356Z,3.90
2018-04-19T12:57:57.560Z,3.20
2018-04-19T13:00:24.481Z,3.40
2018-04-19T13:02:51.347Z,3.17
2018-04-19T13:05:18.408Z,3.07
2018-04-19T13:07:46.646Z,3.40
2018-04-19T13:10:13.361Z,3.47
2018-04-19T13:12:41.303Z,2.90
2018-04-19T13:15:07.474Z,3.17
2018-04-19T13:17:33.763Z,3.20
2018-04-19T13:20:00.608Z,2.80
2018-04-19T13:22:27.274Z,3.20
2018-04-19T13:24:54.291Z,3.23
2018-04-19T13:27:21.092Z,3.40
2018-04-19T13:29:48.711Z,3.40
2018-04-19T13:32:14.903Z,3.40
2018-04-19T13:34:41.137Z,3.93
2018-04-19T13:37:07.886Z,4.13
2018-04-19T13:39:34.120Z,3.20
2018-04-19T13:42:00.366Z,2.97
2018-04-19T13:44:26.605Z,3.13
2018-04-19T13:46:53.354Z,3.50
2018-04-19T13:49:20.099Z,3.80
2018-04-19T13:51:47.089Z,3.60
2018-04-19T13:54:13.328Z,3.50
2018-04-19T13:56:39.557Z,3.43
2018-04-19T13:59:06.291Z,3.60
2018-04-19T14:01:32.717Z,3.50
2018-04-19T14:03:59.628Z,3.80
2018-04-19T14:06:25.832Z,4.00
2018-04-19T14:08:52.591Z,4.10
2018-04-19T14:11:18.782Z,4.50
2018-04-19T14:13:45.014Z,3.77
2018-04-19T14:16:11.380Z,3.73
2018-04-19T14:18:38.185Z,4.43
2018-04-19T14:21:05.638Z,4.13
2018-04-19T14:23:32.373Z,3.90
2018-04-19T14:25:59.312Z,3.63
2018-04-19T14:28:27.289Z,3.60
2018-04-19T14:30:54.774Z,3.73
2018-04-19T14:33:21.542Z,3.60
2018-04-19T14:35:49.035Z,3.77
2018-04-19T14:38:15.809Z,3.80
2018-04-19T14:40:42.892Z,3.50
2018-04-19T14:43:10.028Z,3.43
2018-04-19T14:45:37.018Z,3.70
2018-04-19T14:48:03.333Z,3.97
2018-04-19T14:50:30.167Z,4.10
2018-04-19T14:52:57.150Z,3.80
2018-04-19T14:55:23.359Z,3.53
2018-04-19T14:57:49.585Z,4.43
2018-04-19T15:00:15.833Z,4.40
2018-04-19T15:02:43.034Z,3.70
2018-04-19T15:05:10.500Z,3.57
2018-04-19T15:07:38.065Z,4.07
2018-04-19T15:10:04.379Z,4.27
2018-04-19T15:12:31.345Z,3.83
2018-04-19T15:14:58.141Z,4.30
2018-04-19T15:17:24.335Z,4.00
2018-04-19T15:19:50.619Z,4.00
2018-04-19T15:22:18.378Z,4.50
2018-04-19T15:24:45.369Z,3.80
2018-04-19T15:27:12.233Z,3.70
2018-04-19T15:29:39.069Z,4.03
2018-04-19T15:32:05.957Z,3.40
2018-04-19T15:34:33.436Z,3.63
2018-04-19T15:36:59.745Z,3.50
2018-04-19T15:39:27.283Z,3.80
2018-04-19T15:41:53.543Z,3.90
2018-04-19T15:44:20.785Z,3.33
2018-04-19T15:46:47.928Z,3.73
2018-04-19T15:49:14.332Z,3.80
2018-04-19T15:51:41.938Z,3.90
2018-04-19T15:54:08.888Z,3.60
2018-04-19T15:56:35.889Z,3.80
2018-04-19T15:59:02.270Z,4.03
2018-04-19T16:01:29.873Z,3.40
2018-04-19T16:03:56.199Z,3.60
2018-04-19T16:06:23.071Z,3.73
2018-04-19T16:08:50.089Z,3.50
2018-04-19T16:11:16.517Z,3.77
2018-04-19T16:13:44.072Z,4.00
2018-04-19T16:16:11.614Z,4.00
2018-04-19T16:18:38.619Z,3.30
2018-04-19T16:21:06.184Z,3.43
2018-04-19T16:23:33.792Z,3.80
2018-04-19T16:26:00.070Z,3.90
2018-04-19T16:28:27.306Z,3.97
2018-04-19T16:30:54.297Z,4.00
2018-04-19T16:33:21.063Z,3.90
2018-04-19T16:35:48.091Z,4.10
2018-04-19T16:38:14.388Z,4.20
2018-04-19T16:40:41.423Z,4.20
2018-04-19T16:43:07.616Z,3.83
2018-04-19T16:45:34.638Z,4.20
2018-04-19T16:48:01.057Z,3.83
2018-04-19T16:50:28.830Z,3.80
2018-04-19T16:52:57.045Z,4.40
2018-04-19T16:55:23.843Z,3.80
2018-04-19T16:57:50.100Z,4.47
2018-04-19T17:00:16.327Z,6.53
2018-04-19T17:02:42.568Z,5.63
2018-04-19T17:05:09.224Z,4.53
2018-04-19T17:07:37.148Z,4.93
2018-04-19T17:10:04.377Z,4.60
2018-04-19T17:12:30.731Z,4.50
2018-04-19T17:14:56.917Z,4.20
2018-04-19T17:17:24.060Z,4.87
2018-04-19T17:19:51.013Z,5.33
2018-04-19T17:22:19.045Z,4.27
2018-04-19T17:24:45.239Z,4.50
2018-04-19T17:27:12.125Z,4.37
2018-04-19T17:29:38.843Z,4.57
2018-04-19T17:32:05.090Z,4.67
2018-04-19T17:34:31.703Z,4.50
2018-04-19T17:36:59.237Z,4.27
2018-04-19T17:39:25.559Z,4.87
2018-04-19T17:41:53.885Z,5.47
2018-04-19T17:44:20.421Z,5.43
2018-04-19T17:46:49.121Z,4.83
2018-04-19T17:49:15.344Z,4.60
2018-04-19T17:51:41.546Z,5.57
2018-04-19T17:54:07.787Z,5.03
2018-04-19T17:56:34.001Z,5.83
2018-04-19T17:59:00.197Z,5.23
2018-04-19T18:01:26.447Z,5.67
2018-04-19T18:03:53.221Z,5.17
2018-04-19T18:06:20.384Z,5.00
2018-04-19T18:08:47.358Z,5.00
2018-04-19T18:11:14.967Z,4.97
2018-04-19T18:13:41.843Z,5.17
2018-04-19T18:16:09.506Z,5.23
2018-04-19T18:18:37.674Z,5.30
2018-04-19T18:21:05.166Z,7.93
2018-04-19T18:23:31.398Z,7.30
2018-04-19T18:25:58.925Z,6.50
2018-04-19T18:28:27.082Z,8.07
2018-04-19T18:30:53.273Z,8.10
2018-04-19T18:33:26.378Z,8.20
2018-04-19T18:35:53.175Z,9.13
2018-04-19T18:38:19.371Z,7.73
2018-04-19T18:40:45.573Z,6.73
2018-04-19T18:43:12.330Z,6.50
2018-04-19T18:45:39.125Z,5.53
2018-04-19T18:48:06.761Z,5.50
2018-04-19T18:50:34.300Z,5.00
2018-04-19T18:53:02.147Z,5.63
2018-04-19T18:55:28.808Z,6.00
2018-04-19T18:57:55.782Z,5.30
2018-04-19T19:00:22.138Z,5.43
2018-04-19T19:02:49.214Z,5.77
2018-04-19T19:05:15.466Z,5.23
2018-04-19T19:07:43.141Z,5.93
2018-04-19T19:10:10.742Z,5.57
2018-04-19T19:12:37.042Z,5.27
2018-04-19T19:15:10.027Z,4.90
2018-04-19T19:18:02.716Z,5.80
2018-04-19T19:20:31.028Z,5.70
2018-04-19T19:22:58.096Z,5.20
2018-04-19T19:25:24.346Z,5.50
2018-04-19T19:27:51.167Z,11.13
2018-04-19T19:30:17.391Z,9.43
2018-04-19T19:32:43.604Z,9.17
2018-04-19T19:35:11.145Z,8.47
2018-04-19T19:37:38.373Z,7.70
2018-04-19T19:40:05.063Z,5.90
2018-04-19T19:42:32.623Z,5.90
2018-04-19T19:44:58.921Z,5.30
2018-04-19T19:47:25.143Z,5.00
2018-04-19T19:49:51.622Z,4.87
2018-04-19T19:52:18.543Z,4.80
2018-04-19T19:54:46.288Z,4.90
2018-04-19T19:57:12.500Z,5.70
2018-04-19T19:59:39.096Z,5.73
2018-04-19T20:02:06.112Z,5.33
2018-04-19T20:04:33.307Z,5.40
2018-04-19T20:06:59.893Z,5.30
2018-04-19T20:09:27.568Z,5.27
2018-04-19T20:11:55.082Z,6.10
2018-04-19T20:14:22.994Z,6.43
2018-04-19T20:16:51.522Z,5.90
2018-04-19T20:19:17.791Z,5.77
2018-04-19T20:21:44.035Z,5.77
2018-04-19T20:24:11.003Z,5.73
2018-04-19T20:26:38.339Z,5.93
2018-04-19T20:29:05.857Z,5.60
2018-04-19T20:31:32.589Z,5.60
2018-04-19T20:33:59.630Z,6.00
2018-04-19T20:36:27.210Z,5.47
2018-04-19T20:38:54.002Z,6.27
2018-04-19T20:41:20.742Z,5.70
2018-04-19T20:43:46.957Z,5.70
2018-04-19T20:46:13.832Z,5.30
2018-04-19T20:48:41.572Z,5.33
2018-04-19T20:51:08.338Z,6.30
2018-04-19T20:53:35.108Z,5.50
2018-04-19T20:56:01.801Z,6.10
2018-04-19T20:58:28.037Z,6.13
2018-04-19T21:00:54.934Z,5.93
2018-04-19T21:03:22.505Z,5.30
2018-04-19T21:05:50.461Z,5.53
2018-04-19T21:08:17.710Z,5.77
2018-04-19T21:10:44.037Z,5.70
2018-04-19T21:13:10.257Z,5.40
2018-04-19T21:15:36.443Z,5.40
2018-04-19T21:18:03.471Z,6.27
2018-04-19T21:20:30.569Z,5.67
2018-04-19T21:22:56.878Z,5.37
2018-04-19T21:25:23.173Z,6.17
2018-04-19T21:27:49.927Z,5.50
2018-04-19T21:30:16.490Z,5.17
2018-04-19T21:32:43.743Z,5.50
2018-04-19T21:35:17.477Z,5.60
2018-04-19T21:37:44.675Z,5.87
2018-04-19T21:40:12.074Z,4.97
2018-04-19T21:42:39.013Z,5.00
2018-04-19T21:45:05.511Z,5.67
2018-04-19T21:47:32.077Z,4.60
2018-04-19T21:49:59.078Z,4.87
2018-04-19T21:52:25.940Z,5.70
2018-04-19T21:54:52.721Z,5.10
2018-04-19T21:57:18.950Z,4.90
2018-04-19T21:59:45.201Z,5.60
2018-04-19T22:02:12.157Z,5.80
2018-04-19T22:04:39.259Z,5.60
2018-04-19T22:23:21.342Z,5.57
2018-04-19T22:25:48.039Z,6.07
2018-04-19T22:28:14.478Z,5.70
2018-04-19T22:30:41.728Z,6.00
2018-04-19T22:33:08.833Z,5.30
2018-04-19T22:35:35.320Z,5.37
2018-04-19T22:38:02.877Z,6.10
2018-04-19T22:40:29.889Z,6.30
2018-04-19T22:42:56.908Z,5.60
2018-04-19T22:45:23.693Z,5.80
2018-04-19T22:47:51.205Z,5.50
2018-04-19T22:50:18.135Z,5.23
2018-04-19T22:52:45.887Z,5.70
2018-04-19T22:55:13.585Z,6.50
2018-04-19T22:57:47.027Z,6.07
2018-04-19T23:00:14.198Z,5.37
2018-04-19T23:02:40.971Z,6.03
2018-04-19T23:05:07.978Z,6.80
2018-04-19T23:07:34.337Z,6.80
2018-04-19T23:10:02.265Z,6.70
2018-04-19T23:12:29.056Z,6.03
2018-04-19T23:14:56.454Z,7.33
2018-04-19T23:17:24.179Z,7.03
2018-04-19T23:19:51.682Z,7.40
2018-04-19T23:22:22.045Z,6.60
2018-04-19T23:24:48.919Z,7.37
2018-04-19T23:27:15.637Z,7.63
2018-04-19T23:29:42.385Z,7.67
2018-04-19T23:32:08.818Z,6.60
2018-04-19T23:34:35.820Z,6.63
2018-04-19T23:37:02.886Z,7.27
2018-04-19T23:39:30.609Z,7.70
2018-04-19T23:41:58.216Z,6.70
2018-04-19T23:44:24.959Z,7.17
2018-04-19T23:46:51.372Z,7.50
2018-04-19T23:49:18.140Z,7.27
2018-04-19T23:51:45.117Z,6.67
2018-04-19T23:54:12.082Z,7.90
2018-04-19T23:56:38.294Z,7.70
2018-04-19T23:59:05.491Z,6.83
